sensor_id;sensor_type;location;lat;lon;timestamp;P1;durP1;ratioP1;P2;durP2;ratioP2
3875;SDS011;1953;51.222;6.624;2023-04-03T00:02:40;14.93;;;10.10;;
3875;SDS011;1953;51.222;6.624;2023-04-03T00:10:35;17.60;;;11.37;;
3875;SDS011;1953;51.222;6.624;2023-04-03T00:15:18;17.33;;;11.40;;
3875;SDS011;1953;51.222;6.624;2023-04-03T00:20:00;16.30;;;10.10;;
3875;SDS011;1953;51.222;6.624;2023-04-03T00:24:43;15.87;;;10.27;;
3875;SDS011;1953;51.222;6.624;2023-04-03T00:29:27;19.97;;;10.80;;
3875;SDS011;1953;51.222;6.624;2023-04-03T00:34:09;19.83;;;9.73;;
3875;SDS011;1953;51.222;6.624;2023-04-03T00:38:52;13.60;;;9.37;;
3875;SDS011;1953;51.222;6.624;2023-04-03T00:43:34;13.80;;;9.97;;
3875;SDS011;1953;51.222;6.624;2023-04-03T00:48:20;17.70;;;10.30;;
3875;SDS011;1953;51.222;6.624;2023-04-03T00:53:05;16.03;;;9.40;;
3875;SDS011;1953;51.222;6.624;2023-04-03T00:57:50;13.47;;;8.50;;
3875;SDS011;1953;51.222;6.624;2023-04-03T01:02:34;14.13;;;9.60;;
3875;SDS011;1953;51.222;6.624;2023-04-03T01:07:19;13.97;;;9.93;;
3875;SDS011;1953;51.222;6.624;2023-04-03T01:12:13;14.93;;;9.70;;
3875;SDS011;1953;51.222;6.624;2023-04-03T01:16:57;13.67;;;9.57;;
3875;SDS011;1953;51.222;6.624;2023-04-03T01:21:48;18.23;;;10.27;;
3875;SDS011;1953;51.222;6.624;2023-04-03T01:26:46;17.27;;;10.33;;
3875;SDS011;1953;51.222;6.624;2023-04-03T01:31:30;16.60;;;9.70;;
3875;SDS011;1953;51.222;6.624;2023-04-03T01:36:23;20.60;;;10.43;;
3875;SDS011;1953;51.222;6.624;2023-04-03T01:41:07;15.77;;;10.07;;
3875;SDS011;1953;51.222;6.624;2023-04-03T01:45:49;13.03;;;9.47;;
3875;SDS011;1953;51.222;6.624;2023-04-03T01:50:34;17.43;;;9.73;;
3875;SDS011;1953;51.222;6.624;2023-04-03T01:55:17;15.17;;;9.67;;
3875;SDS011;1953;51.222;6.624;2023-04-03T02:00:00;17.23;;;10.37;;
3875;SDS011;1953;51.222;6.624;2023-04-03T02:04:42;20.93;;;10.30;;
3875;SDS011;1953;51.222;6.624;2023-04-03T02:09:26;14.37;;;10.43;;
3875;SDS011;1953;51.222;6.624;2023-04-03T02:14:08;16.97;;;10.43;;
3875;SDS011;1953;51.222;6.624;2023-04-03T02:18:51;16.83;;;10.70;;
3875;SDS011;1953;51.222;6.624;2023-04-03T02:23:33;14.93;;;9.73;;
3875;SDS011;1953;51.222;6.624;2023-04-03T02:28:19;17.60;;;11.07;;
3875;SDS011;1953;51.222;6.624;2023-04-03T02:33:01;22.80;;;11.53;;
3875;SDS011;1953;51.222;6.624;2023-04-03T02:37:43;21.13;;;12.07;;
3875;SDS011;1953;51.222;6.624;2023-04-03T02:42:26;21.03;;;11.47;;
3875;SDS011;1953;51.222;6.624;2023-04-03T02:47:10;16.03;;;11.87;;
3875;SDS011;1953;51.222;6.624;2023-04-03T02:51:52;16.80;;;12.00;;
3875;SDS011;1953;51.222;6.624;2023-04-03T02:56:35;22.10;;;12.70;;
3875;SDS011;1953;51.222;6.624;2023-04-03T03:01:18;19.60;;;12.53;;
3875;SDS011;1953;51.222;6.624;2023-04-03T03:06:02;23.50;;;14.10;;
3875;SDS011;1953;51.222;6.624;2023-04-03T03:10:46;22.20;;;14.20;;
3875;SDS011;1953;51.222;6.624;2023-04-03T03:15:28;23.60;;;13.40;;
3875;SDS011;1953;51.222;6.624;2023-04-03T03:20:11;21.30;;;13.83;;
3875;SDS011;1953;51.222;6.624;2023-04-03T03:24:57;21.93;;;12.30;;
3875;SDS011;1953;51.222;6.624;2023-04-03T03:29:39;18.03;;;12.10;;
3875;SDS011;1953;51.222;6.624;2023-04-03T03:34:22;20.77;;;12.10;;
3875;SDS011;1953;51.222;6.624;2023-04-03T03:39:04;19.97;;;12.27;;
3875;SDS011;1953;51.222;6.624;2023-04-03T03:43:48;17.20;;;11.50;;
3875;SDS011;1953;51.222;6.624;2023-04-03T03:48:31;18.27;;;11.83;;
3875;SDS011;1953;51.222;6.624;2023-04-03T03:53:14;18.80;;;11.10;;
3875;SDS011;1953;51.222;6.624;2023-04-03T03:57:56;17.53;;;10.60;;
3875;SDS011;1953;51.222;6.624;2023-04-03T04:02:40;18.63;;;10.73;;
3875;SDS011;1953;51.222;6.624;2023-04-03T04:07:23;16.40;;;10.90;;
3875;SDS011;1953;51.222;6.624;2023-04-03T04:12:08;19.13;;;10.30;;
3875;SDS011;1953;51.222;6.624;2023-04-03T04:16:51;14.87;;;9.47;;
3875;SDS011;1953;51.222;6.624;2023-04-03T04:21:34;21.20;;;9.87;;
3875;SDS011;1953;51.222;6.624;2023-04-03T04:26:17;17.77;;;9.30;;
3875;SDS011;1953;51.222;6.624;2023-04-03T04:31:00;11.40;;;8.33;;
3875;SDS011;1953;51.222;6.624;2023-04-03T04:35:43;17.77;;;9.73;;
3875;SDS011;1953;51.222;6.624;2023-04-03T04:40:27;13.00;;;8.00;;
3875;SDS011;1953;51.222;6.624;2023-04-03T04:45:10;12.30;;;8.40;;
3875;SDS011;1953;51.222;6.624;2023-04-03T04:49:53;10.77;;;6.97;;
3875;SDS011;1953;51.222;6.624;2023-04-03T04:54:35;13.60;;;7.30;;
3875;SDS011;1953;51.222;6.624;2023-04-03T04:59:19;16.13;;;7.40;;
3875;SDS011;1953;51.222;6.624;2023-04-03T05:04:02;14.43;;;7.30;;
3875;SDS011;1953;51.222;6.624;2023-04-03T05:08:44;11.87;;;6.90;;
3875;SDS011;1953;51.222;6.624;2023-04-03T05:13:27;11.90;;;6.80;;
3875;SDS011;1953;51.222;6.624;2023-04-03T05:18:11;13.30;;;6.90;;
3875;SDS011;1953;51.222;6.624;2023-04-03T05:22:53;11.00;;;6.93;;
3875;SDS011;1953;51.222;6.624;2023-04-03T05:27:36;12.23;;;6.10;;
3875;SDS011;1953;51.222;6.624;2023-04-03T05:32:18;11.23;;;6.60;;
3875;SDS011;1953;51.222;6.624;2023-04-03T05:37:02;14.10;;;6.60;;
3875;SDS011;1953;51.222;6.624;2023-04-03T05:41:45;9.50;;;6.70;;
3875;SDS011;1953;51.222;6.624;2023-04-03T05:46:28;15.57;;;6.67;;
3875;SDS011;1953;51.222;6.624;2023-04-03T05:51:13;10.57;;;6.20;;
3875;SDS011;1953;51.222;6.624;2023-04-03T05:56:00;12.00;;;6.00;;
3875;SDS011;1953;51.222;6.624;2023-04-03T06:00:42;10.10;;;6.27;;
3875;SDS011;1953;51.222;6.624;2023-04-03T06:05:25;10.97;;;5.77;;
3875;SDS011;1953;51.222;6.624;2023-04-03T06:10:10;11.67;;;6.43;;
3875;SDS011;1953;51.222;6.624;2023-04-03T06:14:54;13.40;;;5.50;;
3875;SDS011;1953;51.222;6.624;2023-04-03T06:19:38;9.50;;;6.07;;
3875;SDS011;1953;51.222;6.624;2023-04-03T06:24:20;10.17;;;5.73;;
3875;SDS011;1953;51.222;6.624;2023-04-03T06:29:04;9.30;;;5.87;;
3875;SDS011;1953;51.222;6.624;2023-04-03T06:33:49;9.60;;;5.40;;
3875;SDS011;1953;51.222;6.624;2023-04-03T06:38:31;11.77;;;5.97;;
3875;SDS011;1953;51.222;6.624;2023-04-03T06:43:14;11.37;;;6.10;;
3875;SDS011;1953;51.222;6.624;2023-04-03T06:47:56;8.53;;;6.07;;
3875;SDS011;1953;51.222;6.624;2023-04-03T06:52:40;9.73;;;6.23;;
3875;SDS011;1953;51.222;6.624;2023-04-03T06:57:23;9.87;;;5.37;;
3875;SDS011;1953;51.222;6.624;2023-04-03T07:02:06;13.30;;;5.67;;
3875;SDS011;1953;51.222;6.624;2023-04-03T07:06:48;11.00;;;6.13;;
3875;SDS011;1953;51.222;6.624;2023-04-03T07:11:32;9.93;;;6.60;;
3875;SDS011;1953;51.222;6.624;2023-04-03T07:16:15;10.37;;;5.37;;
3875;SDS011;1953;51.222;6.624;2023-04-03T07:20:58;9.30;;;5.43;;
3875;SDS011;1953;51.222;6.624;2023-04-03T07:25:42;7.57;;;5.23;;
3875;SDS011;1953;51.222;6.624;2023-04-03T07:30:27;9.37;;;5.20;;
3875;SDS011;1953;51.222;6.624;2023-04-03T07:35:09;7.63;;;4.90;;
3875;SDS011;1953;51.222;6.624;2023-04-03T07:39:52;8.17;;;5.27;;
3875;SDS011;1953;51.222;6.624;2023-04-03T07:44:35;8.43;;;5.03;;
3875;SDS011;1953;51.222;6.624;2023-04-03T07:49:19;11.30;;;5.30;;
3875;SDS011;1953;51.222;6.624;2023-04-03T07:54:03;9.67;;;5.10;;
3875;SDS011;1953;51.222;6.624;2023-04-03T07:58:46;6.37;;;4.40;;
3875;SDS011;1953;51.222;6.624;2023-04-03T08:03:28;10.90;;;4.47;;
3875;SDS011;1953;51.222;6.624;2023-04-03T08:08:13;5.07;;;3.97;;
3875;SDS011;1953;51.222;6.624;2023-04-03T08:12:57;11.50;;;4.17;;
3875;SDS011;1953;51.222;6.624;2023-04-03T08:17:40;7.93;;;4.30;;
3875;SDS011;1953;51.222;6.624;2023-04-03T08:22:22;7.10;;;4.07;;
3875;SDS011;1953;51.222;6.624;2023-04-03T08:27:06;6.10;;;4.30;;
3875;SDS011;1953;51.222;6.624;2023-04-03T08:31:49;6.67;;;4.27;;
3875;SDS011;1953;51.222;6.624;2023-04-03T08:36:32;9.70;;;3.23;;
3875;SDS011;1953;51.222;6.624;2023-04-03T08:41:15;4.73;;;3.70;;
3875;SDS011;1953;51.222;6.624;2023-04-03T08:46:13;5.40;;;3.70;;
3875;SDS011;1953;51.222;6.624;2023-04-03T08:50:59;8.03;;;3.57;;
3875;SDS011;1953;51.222;6.624;2023-04-03T08:55:45;3.33;;;2.67;;
3875;SDS011;1953;51.222;6.624;2023-04-03T09:00:30;7.73;;;3.27;;
3875;SDS011;1953;51.222;6.624;2023-04-03T09:05:28;3.60;;;3.30;;
3875;SDS011;1953;51.222;6.624;2023-04-03T09:10:26;4.40;;;2.20;;
3875;SDS011;1953;51.222;6.624;2023-04-03T09:15:15;4.63;;;2.30;;
3875;SDS011;1953;51.222;6.624;2023-04-03T09:20:02;3.00;;;2.50;;
3875;SDS011;1953;51.222;6.624;2023-04-03T09:24:57;3.47;;;2.20;;
3875;SDS011;1953;51.222;6.624;2023-04-03T09:29:43;3.87;;;2.33;;
3875;SDS011;1953;51.222;6.624;2023-04-03T09:34:28;4.83;;;3.13;;
3875;SDS011;1953;51.222;6.624;2023-04-03T09:39:14;5.70;;;2.70;;
3875;SDS011;1953;51.222;6.624;2023-04-03T09:43:59;6.47;;;2.60;;
3875;SDS011;1953;51.222;6.624;2023-04-03T09:48:49;6.93;;;3.03;;
3875;SDS011;1953;51.222;6.624;2023-04-03T09:53:35;3.70;;;2.93;;
3875;SDS011;1953;51.222;6.624;2023-04-03T09:58:23;4.00;;;2.33;;
3875;SDS011;1953;51.222;6.624;2023-04-03T10:03:20;4.90;;;2.47;;
3875;SDS011;1953;51.222;6.624;2023-04-03T10:08:08;3.33;;;2.33;;
3875;SDS011;1953;51.222;6.624;2023-04-03T10:13:03;3.20;;;2.30;;
3875;SDS011;1953;51.222;6.624;2023-04-03T10:17:50;5.17;;;2.47;;
3875;SDS011;1953;51.222;6.624;2023-04-03T10:22:42;11.23;;;2.93;;
3875;SDS011;1953;51.222;6.624;2023-04-03T10:27:42;3.50;;;2.13;;
3875;SDS011;1953;51.222;6.624;2023-04-03T10:32:41;4.60;;;2.77;;
3875;SDS011;1953;51.222;6.624;2023-04-03T10:37:35;4.13;;;2.20;;
3875;SDS011;1953;51.222;6.624;2023-04-03T10:42:32;5.60;;;2.10;;
3875;SDS011;1953;51.222;6.624;2023-04-03T10:47:20;2.40;;;2.00;;
3875;SDS011;1953;51.222;6.624;2023-04-03T10:52:07;5.83;;;2.77;;
3875;SDS011;1953;51.222;6.624;2023-04-03T10:57:00;3.87;;;2.60;;
3875;SDS011;1953;51.222;6.624;2023-04-03T11:01:48;5.33;;;2.30;;
3875;SDS011;1953;51.222;6.624;2023-04-03T11:06:34;4.10;;;2.33;;
3875;SDS011;1953;51.222;6.624;2023-04-03T11:11:22;3.47;;;2.67;;
3875;SDS011;1953;51.222;6.624;2023-04-03T11:16:08;3.37;;;2.87;;
3875;SDS011;1953;51.222;6.624;2023-04-03T11:20:59;5.37;;;2.60;;
3875;SDS011;1953;51.222;6.624;2023-04-03T11:25:45;7.93;;;2.80;;
3875;SDS011;1953;51.222;6.624;2023-04-03T11:30:32;6.27;;;2.80;;
3875;SDS011;1953;51.222;6.624;2023-04-03T11:35:20;2.90;;;2.47;;
3875;SDS011;1953;51.222;6.624;2023-04-03T11:40:07;2.90;;;2.03;;
3875;SDS011;1953;51.222;6.624;2023-04-03T12:05:46;4.20;;;2.50;;
3875;SDS011;1953;51.222;6.624;2023-04-03T12:11:35;3.37;;;2.03;;
3875;SDS011;1953;51.222;6.624;2023-04-03T12:16:19;4.87;;;2.27;;
3875;SDS011;1953;51.222;6.624;2023-04-03T12:21:04;2.20;;;2.00;;
3875;SDS011;1953;51.222;6.624;2023-04-03T12:25:48;3.07;;;2.10;;
3875;SDS011;1953;51.222;6.624;2023-04-03T12:30:35;4.03;;;2.23;;
3875;SDS011;1953;51.222;6.624;2023-04-03T12:35:20;3.40;;;2.27;;
3875;SDS011;1953;51.222;6.624;2023-04-03T12:40:08;3.37;;;1.90;;
3875;SDS011;1953;51.222;6.624;2023-04-03T12:45:00;2.73;;;2.10;;
3875;SDS011;1953;51.222;6.624;2023-04-03T12:49:49;3.70;;;2.00;;
3875;SDS011;1953;51.222;6.624;2023-04-03T12:54:32;3.20;;;2.30;;
3875;SDS011;1953;51.222;6.624;2023-04-03T12:59:19;3.83;;;3.03;;
3875;SDS011;1953;51.222;6.624;2023-04-03T13:04:03;2.47;;;2.00;;
3875;SDS011;1953;51.222;6.624;2023-04-03T13:08:51;2.83;;;1.70;;
3875;SDS011;1953;51.222;6.624;2023-04-03T13:13:34;2.20;;;2.00;;
3875;SDS011;1953;51.222;6.624;2023-04-03T13:18:26;2.07;;;1.97;;
3875;SDS011;1953;51.222;6.624;2023-04-03T13:23:10;1.90;;;1.80;;
3875;SDS011;1953;51.222;6.624;2023-04-03T13:28:00;3.30;;;2.20;;
3875;SDS011;1953;51.222;6.624;2023-04-03T13:32:45;2.20;;;1.80;;
3875;SDS011;1953;51.222;6.624;2023-04-03T13:37:28;3.30;;;2.07;;
3875;SDS011;1953;51.222;6.624;2023-04-03T13:42:20;3.10;;;1.90;;
3875;SDS011;1953;51.222;6.624;2023-04-03T13:47:16;4.80;;;2.00;;
3875;SDS011;1953;51.222;6.624;2023-04-03T13:52:01;3.40;;;2.20;;
3875;SDS011;1953;51.222;6.624;2023-04-03T13:56:45;2.60;;;1.90;;
3875;SDS011;1953;51.222;6.624;2023-04-03T14:01:33;2.40;;;1.90;;
3875;SDS011;1953;51.222;6.624;2023-04-03T14:06:21;3.23;;;2.20;;
3875;SDS011;1953;51.222;6.624;2023-04-03T14:11:04;3.90;;;2.07;;
3875;SDS011;1953;51.222;6.624;2023-04-03T14:15:47;3.70;;;2.40;;
3875;SDS011;1953;51.222;6.624;2023-04-03T14:20:31;4.03;;;2.80;;
3875;SDS011;1953;51.222;6.624;2023-04-03T14:25:15;4.13;;;2.20;;
3875;SDS011;1953;51.222;6.624;2023-04-03T14:29:59;4.63;;;2.17;;
3875;SDS011;1953;51.222;6.624;2023-04-03T14:34:43;2.20;;;2.00;;
3875;SDS011;1953;51.222;6.624;2023-04-03T14:39:26;2.43;;;2.23;;
3875;SDS011;1953;51.222;6.624;2023-04-03T14:44:10;3.53;;;2.10;;
3875;SDS011;1953;51.222;6.624;2023-04-03T14:48:53;2.20;;;2.00;;
3875;SDS011;1953;51.222;6.624;2023-04-03T14:53:35;3.00;;;2.00;;
3875;SDS011;1953;51.222;6.624;2023-04-03T14:58:19;3.80;;;2.30;;
3875;SDS011;1953;51.222;6.624;2023-04-03T15:03:04;2.67;;;2.40;;
3875;SDS011;1953;51.222;6.624;2023-04-03T15:07:46;2.83;;;1.97;;
3875;SDS011;1953;51.222;6.624;2023-04-03T15:12:31;3.03;;;2.37;;
3875;SDS011;1953;51.222;6.624;2023-04-03T15:17:14;1.67;;;1.53;;
3875;SDS011;1953;51.222;6.624;2023-04-03T15:22:00;4.27;;;2.20;;
3875;SDS011;1953;51.222;6.624;2023-04-03T15:26:43;6.17;;;2.40;;
3875;SDS011;1953;51.222;6.624;2023-04-03T15:31:25;3.90;;;2.20;;
3875;SDS011;1953;51.222;6.624;2023-04-03T15:36:09;6.60;;;2.30;;
3875;SDS011;1953;51.222;6.624;2023-04-03T15:40:53;3.23;;;2.70;;
3875;SDS011;1953;51.222;6.624;2023-04-03T15:45:36;2.70;;;2.20;;
3875;SDS011;1953;51.222;6.624;2023-04-03T15:50:19;4.13;;;2.50;;
3875;SDS011;1953;51.222;6.624;2023-04-03T15:55:03;2.10;;;1.87;;
3875;SDS011;1953;51.222;6.624;2023-04-03T15:59:48;3.47;;;2.20;;
3875;SDS011;1953;51.222;6.624;2023-04-03T16:04:30;2.30;;;2.07;;
3875;SDS011;1953;51.222;6.624;2023-04-03T16:09:14;3.23;;;2.03;;
3875;SDS011;1953;51.222;6.624;2023-04-03T16:13:56;3.37;;;1.83;;
3875;SDS011;1953;51.222;6.624;2023-04-03T16:18:40;2.17;;;1.97;;
3875;SDS011;1953;51.222;6.624;2023-04-03T16:23:23;5.60;;;2.50;;
3875;SDS011;1953;51.222;6.624;2023-04-03T16:28:05;2.80;;;1.90;;
3875;SDS011;1953;51.222;6.624;2023-04-03T16:32:48;2.90;;;2.13;;
3875;SDS011;1953;51.222;6.624;2023-04-03T16:37:32;4.50;;;2.50;;
3875;SDS011;1953;51.222;6.624;2023-04-03T16:42:15;4.63;;;2.20;;
3875;SDS011;1953;51.222;6.624;2023-04-03T16:46:57;3.77;;;2.57;;
3875;SDS011;1953;51.222;6.624;2023-04-03T16:51:40;3.57;;;2.67;;
3875;SDS011;1953;51.222;6.624;2023-04-03T16:56:24;2.60;;;2.40;;
3875;SDS011;1953;51.222;6.624;2023-04-03T17:01:11;8.80;;;2.67;;
3875;SDS011;1953;51.222;6.624;2023-04-03T17:05:54;3.70;;;2.33;;
3875;SDS011;1953;51.222;6.624;2023-04-03T17:10:37;2.80;;;2.30;;
3875;SDS011;1953;51.222;6.624;2023-04-03T17:15:21;6.63;;;2.43;;
3875;SDS011;1953;51.222;6.624;2023-04-03T17:20:05;3.03;;;2.27;;
3875;SDS011;1953;51.222;6.624;2023-04-03T17:24:49;5.47;;;2.47;;
3875;SDS011;1953;51.222;6.624;2023-04-03T17:29:31;4.30;;;2.60;;
3875;SDS011;1953;51.222;6.624;2023-04-03T17:34:15;4.00;;;2.40;;
3875;SDS011;1953;51.222;6.624;2023-04-03T17:38:58;3.80;;;2.40;;
3875;SDS011;1953;51.222;6.624;2023-04-03T17:43:41;4.40;;;2.50;;
3875;SDS011;1953;51.222;6.624;2023-04-03T17:48:23;3.17;;;2.37;;
3875;SDS011;1953;51.222;6.624;2023-04-03T17:53:08;3.70;;;3.10;;
3875;SDS011;1953;51.222;6.624;2023-04-03T17:57:51;3.03;;;2.67;;
3875;SDS011;1953;51.222;6.624;2023-04-03T18:02:34;3.80;;;2.67;;
3875;SDS011;1953;51.222;6.624;2023-04-03T18:07:16;4.83;;;2.70;;
3875;SDS011;1953;51.222;6.624;2023-04-03T18:12:02;5.77;;;2.80;;
3875;SDS011;1953;51.222;6.624;2023-04-03T18:16:46;3.40;;;2.80;;
3875;SDS011;1953;51.222;6.624;2023-04-03T18:21:29;3.27;;;2.30;;
3875;SDS011;1953;51.222;6.624;2023-04-03T18:26:12;13.20;;;3.20;;
3875;SDS011;1953;51.222;6.624;2023-04-03T18:30:57;5.60;;;2.83;;
3875;SDS011;1953;51.222;6.624;2023-04-03T18:35:40;6.10;;;3.20;;
3875;SDS011;1953;51.222;6.624;2023-04-03T18:40:23;4.33;;;2.90;;
3875;SDS011;1953;51.222;6.624;2023-04-03T18:45:06;4.70;;;2.73;;
3875;SDS011;1953;51.222;6.624;2023-04-03T18:49:52;9.60;;;2.80;;
3875;SDS011;1953;51.222;6.624;2023-04-03T18:54:34;5.80;;;3.23;;
3875;SDS011;1953;51.222;6.624;2023-04-03T18:59:18;5.63;;;3.53;;
3875;SDS011;1953;51.222;6.624;2023-04-03T19:04:01;4.67;;;3.17;;
3875;SDS011;1953;51.222;6.624;2023-04-03T19:08:45;4.67;;;3.13;;
3875;SDS011;1953;51.222;6.624;2023-04-03T19:13:29;7.73;;;2.90;;
3875;SDS011;1953;51.222;6.624;2023-04-03T19:18:12;6.17;;;4.37;;
3875;SDS011;1953;51.222;6.624;2023-04-03T19:22:55;4.77;;;3.63;;
3875;SDS011;1953;51.222;6.624;2023-04-03T19:27:39;4.47;;;3.30;;
3875;SDS011;1953;51.222;6.624;2023-04-03T19:32:22;6.93;;;3.20;;
3875;SDS011;1953;51.222;6.624;2023-04-03T19:37:05;5.53;;;3.00;;
3875;SDS011;1953;51.222;6.624;2023-04-03T19:41:48;4.90;;;3.67;;
3875;SDS011;1953;51.222;6.624;2023-04-03T19:46:32;4.17;;;2.90;;
3875;SDS011;1953;51.222;6.624;2023-04-03T19:51:15;2.77;;;2.57;;
3875;SDS011;1953;51.222;6.624;2023-04-03T19:55:58;3.47;;;3.17;;
3875;SDS011;1953;51.222;6.624;2023-04-03T20:00:41;5.60;;;3.10;;
3875;SDS011;1953;51.222;6.624;2023-04-03T20:05:25;11.47;;;3.10;;
3875;SDS011;1953;51.222;6.624;2023-04-03T20:10:08;6.30;;;3.10;;
3875;SDS011;1953;51.222;6.624;2023-04-03T20:14:52;7.60;;;3.40;;
3875;SDS011;1953;51.222;6.624;2023-04-03T20:19:34;4.27;;;3.30;;
3875;SDS011;1953;51.222;6.624;2023-04-03T20:24:18;3.60;;;2.70;;
3875;SDS011;1953;51.222;6.624;2023-04-03T20:29:01;3.80;;;2.80;;
3875;SDS011;1953;51.222;6.624;2023-04-03T20:33:44;5.10;;;2.77;;
3875;SDS011;1953;51.222;6.624;2023-04-03T20:38:28;3.37;;;3.07;;
3875;SDS011;1953;51.222;6.624;2023-04-03T20:43:12;8.50;;;3.43;;
3875;SDS011;1953;51.222;6.624;2023-04-03T20:47:54;5.53;;;3.40;;
3875;SDS011;1953;51.222;6.624;2023-04-03T20:52:37;5.97;;;3.33;;
3875;SDS011;1953;51.222;6.624;2023-04-03T20:57:20;6.60;;;3.50;;
3875;SDS011;1953;51.222;6.624;2023-04-03T21:02:04;3.90;;;2.77;;
3875;SDS011;1953;51.222;6.624;2023-04-03T21:22:11;7.03;;;3.30;;
3875;SDS011;1953;51.222;6.624;2023-04-03T21:26:56;3.03;;;2.50;;
3875;SDS011;1953;51.222;6.624;2023-04-03T21:31:51;3.43;;;2.67;;
3875;SDS011;1953;51.222;6.624;2023-04-03T21:36:38;6.00;;;3.40;;
3875;SDS011;1953;51.222;6.624;2023-04-03T21:41:22;5.43;;;3.17;;
3875;SDS011;1953;51.222;6.624;2023-04-03T21:46:06;4.00;;;2.77;;
3875;SDS011;1953;51.222;6.624;2023-04-03T21:50:48;4.70;;;3.20;;
3875;SDS011;1953;51.222;6.624;2023-04-03T21:55:32;4.90;;;3.10;;
3875;SDS011;1953;51.222;6.624;2023-04-03T22:00:16;4.70;;;3.60;;
3875;SDS011;1953;51.222;6.624;2023-04-03T22:04:59;7.97;;;3.20;;
3875;SDS011;1953;51.222;6.624;2023-04-03T22:09:42;6.70;;;3.53;;
3875;SDS011;1953;51.222;6.624;2023-04-03T22:14:24;6.83;;;3.90;;
3875;SDS011;1953;51.222;6.624;2023-04-03T22:19:09;4.03;;;3.33;;
3875;SDS011;1953;51.222;6.624;2023-04-03T22:23:51;11.87;;;4.00;;
3875;SDS011;1953;51.222;6.624;2023-04-03T22:28:36;7.10;;;3.47;;
3875;SDS011;1953;51.222;6.624;2023-04-03T22:33:19;7.37;;;4.47;;
3875;SDS011;1953;51.222;6.624;2023-04-03T22:38:03;7.83;;;4.07;;
3875;SDS011;1953;51.222;6.624;2023-04-03T22:42:46;6.77;;;4.17;;
3875;SDS011;1953;51.222;6.624;2023-04-03T22:47:29;7.63;;;4.67;;
3875;SDS011;1953;51.222;6.624;2023-04-03T22:52:11;4.50;;;3.83;;
3875;SDS011;1953;51.222;6.624;2023-04-03T22:56:55;6.07;;;4.23;;
3875;SDS011;1953;51.222;6.624;2023-04-03T23:01:38;6.77;;;4.60;;
3875;SDS011;1953;51.222;6.624;2023-04-03T23:06:20;9.07;;;4.30;;
3875;SDS011;1953;51.222;6.624;2023-04-03T23:11:03;12.93;;;4.50;;
3875;SDS011;1953;51.222;6.624;2023-04-03T23:15:52;6.00;;;4.33;;
3875;SDS011;1953;51.222;6.624;2023-04-03T23:20:34;9.63;;;5.70;;
3875;SDS011;1953;51.222;6.624;2023-04-03T23:25:17;10.90;;;5.00;;
3875;SDS011;1953;51.222;6.624;2023-04-03T23:30:00;6.77;;;4.53;;
3875;SDS011;1953;51.222;6.624;2023-04-03T23:34:44;6.97;;;4.60;;
3875;SDS011;1953;51.222;6.624;2023-04-03T23:39:26;14.73;;;5.23;;
3875;SDS011;1953;51.222;6.624;2023-04-03T23:44:09;6.83;;;4.10;;
3875;SDS011;1953;51.222;6.624;2023-04-03T23:48:51;5.80;;;4.83;;
3875;SDS011;1953;51.222;6.624;2023-04-03T23:53:35;17.53;;;5.27;;
3875;SDS011;1953;51.222;6.624;2023-04-03T23:58:18;7.13;;;4.80;;
